Ek-star — LAMT5 — position and weather

sailwx.info

Track history (hours):
 
Tides and Currents Weather Stations Pressure Air Temp Water Temp Dewpoint Dewpoint Depression Visibility Wind Speed Wind Dir Waves Ship Positions

Ek-star

Last reported at 2014-Dec-21 09:15 UTC. Time now 2014-Dec-21 14:28 UTC.
Position N 59°54' E 030°08'.

Length 135 m; draft 6.6 m.

Type: Ship (hazmat cat A). MMSI: 257433000.

Date/timePositionNaut miles runAvg speedWind from/ knotsBaromVisibWave heightAir tempDewpointWater temp
2014-Dec-21 09:15N 59°54' E 030°08'2 0.1
2014-Dec-20 16:33N 59°53' E 030°12'3 2.6
2014-Dec-20 15:33N 59°55' E 030°15'0 0.0
2014-Dec-20 14:33N 59°55' E 030°15'0 0.0
2014-Dec-20 13:33N 59°55' E 030°15'0 0.0
2014-Dec-20 12:30N 59°55' E 030°15'0 0.0
2014-Dec-20 11:33N 59°55' E 030°15'0 0.0
2014-Dec-20 10:33N 59°55' E 030°15'0 0.0
2014-Dec-20 09:33N 59°55' E 030°15'0 0.0
2014-Dec-20 08:30N 59°55' E 030°15'0 0.0
2014-Dec-20 07:25N 59°55' E 030°15'0 0.0
2014-Dec-20 06:33N 59°55' E 030°15'0 0.0
2014-Dec-20 05:33N 59°55' E 030°15'0 0.0
2014-Dec-20 04:33N 59°55' E 030°15'0 0.0
2014-Dec-20 03:33N 59°55' E 030°15'0 0.0
2014-Dec-20 02:34N 59°55' E 030°15'0 0.0
2014-Dec-20 01:33N 59°55' E 030°15'0 0.0
2014-Dec-20 00:34N 59°55' E 030°15'0 0.0
2014-Dec-19 23:33N 59°55' E 030°15'0 0.0
2014-Dec-19 22:33N 59°55' E 030°15'0 0.0
2014-Dec-19 21:33N 59°55' E 030°15'0 0.0
2014-Dec-19 20:33N 59°55' E 030°15'0 0.0
2014-Dec-19 19:32N 59°55' E 030°15'0 0.0
2014-Dec-19 18:33N 59°55' E 030°15'0 0.0
2014-Dec-19 17:33N 59°55' E 030°15'0 0.0
2014-Dec-19 16:33N 59°55' E 030°15'0 0.0
2014-Dec-19 15:33N 59°55' E 030°15'3 3.0
2014-Dec-19 14:33N 59°53' E 030°11'9912.3
2014-Dec-19 06:27N 59°58' E 026°53'1213.8
2014-Dec-19 05:33N 59°58' E 026°28'3 0.1
2014-Dec-18 03:26N 60°01' E 026°29'11111.2
2014-Dec-17 17:31N 59°53' E 030°11'3 2.9
2014-Dec-17 16:30N 59°55' E 030°15'0 0.0
2014-Dec-17 14:19N 59°55' E 030°15'0 0.0
2014-Dec-17 13:26N 59°55' E 030°15'0 0.0
2014-Dec-17 12:33N 59°55' E 030°15'0 0.0
2014-Dec-17 11:31N 59°55' E 030°15'0 0.0
2014-Dec-17 10:33N 59°55' E 030°15'0 0.0
2014-Dec-17 08:33N 59°55' E 030°15'0 0.0
2014-Dec-17 07:33N 59°55' E 030°15'0 0.0
2014-Dec-17 06:33N 59°55' E 030°15'0 0.0
2014-Dec-17 05:33N 59°55' E 030°15'0 0.0
2014-Dec-17 04:33N 59°55' E 030°15'0 0.0
2014-Dec-17 03:32N 59°55' E 030°15'0 0.0
2014-Dec-17 02:33N 59°55' E 030°15'0 0.0
2014-Dec-17 01:24N 59°55' E 030°15'0 0.0
2014-Dec-17 00:31N 59°55' E 030°15'0 0.0
2014-Dec-16 23:15N 59°55' E 030°15'3 3.9
2014-Dec-16 22:33N 59°53' E 030°12'1 0.0
2014-Dec-16 03:14N 59°52' E 030°12'9710.0
2014-Dec-15 17:33N 59°58' E 026°59'1312.7
2014-Dec-15 16:33N 59°59' E 026°34'58 2.6
2014-Dec-14 18:34N 59°34' E 024°50'0 0.2
2014-Dec-14 17:28N 59°35' E 024°50'0 0.0
2014-Dec-14 16:31N 59°35' E 024°50'0 0.0
2014-Dec-14 15:31N 59°34' E 024°50'0 0.0
2014-Dec-14 14:31N 59°34' E 024°50'0 0.0
2014-Dec-14 13:31N 59°34' E 024°50'0 0.0
2014-Dec-14 12:25N 59°34' E 024°50'0 0.0
2014-Dec-14 11:31N 59°34' E 024°50'1 1.2
2014-Dec-14 10:32N 59°35' E 024°48'4 4.1
2014-Dec-14 09:33N 59°39' E 024°49'6211.7
2014-Dec-14 04:14N 60°01' E 026°45'10411.7
2014-Dec-13 19:22N 59°53' E 030°11'1 0.0
2014-Dec-12 20:21N 59°52' E 030°13'2 2.0
2014-Dec-12 19:33N 59°54' E 030°13'2 1.7
2014-Dec-12 18:32N 59°55' E 030°15'0 0.0
2014-Dec-12 17:32N 59°55' E 030°15'0 0.0
2014-Dec-12 16:32N 59°55' E 030°15'0 0.0
2014-Dec-12 15:32N 59°55' E 030°15'0 0.0
2014-Dec-12 14:32N 59°55' E 030°15'0 0.0
2014-Dec-12 13:23N 59°55' E 030°15'0 0.0
2014-Dec-12 12:20N 59°55' E 030°15'0 0.0
2014-Dec-12 11:29N 59°55' E 030°15'0 0.0
2014-Dec-12 10:11N 59°55' E 030°15'0 0.0
2014-Dec-12 09:23N 59°55' E 030°15'0 0.0
2014-Dec-12 08:26N 59°55' E 030°15'0 0.0
2014-Dec-12 06:29N 59°55' E 030°15'2 1.8
2014-Dec-12 05:33N 59°54' E 030°13'  
Track history (hours):
 
Tides and Currents Weather Stations Pressure Air Temp Water Temp Dewpoint Dewpoint Depression Visibility Wind Speed Wind Dir Waves Ship Positions

Ek-star

Last reported at 2014-Dec-21 09:15 UTC. Time now 2014-Dec-21 14:28 UTC.
Position N 59°54' E 030°08'.

Length 135 m; draft 6.6 m.

Type: Ship (hazmat cat A). MMSI: 257433000.

Date/timePositionNaut miles runAvg speedWind from/ knotsBaromVisibWave heightAir tempDewpointWater temp
2014-Dec-21 09:15N 59°54' E 030°08'2 0.1
2014-Dec-20 16:33N 59°53' E 030°12'3 2.6
2014-Dec-20 15:33N 59°55' E 030°15'0 0.0
2014-Dec-20 14:33N 59°55' E 030°15'0 0.0
2014-Dec-20 13:33N 59°55' E 030°15'0 0.0
2014-Dec-20 12:30N 59°55' E 030°15'0 0.0
2014-Dec-20 11:33N 59°55' E 030°15'0 0.0
2014-Dec-20 10:33N 59°55' E 030°15'0 0.0
2014-Dec-20 09:33N 59°55' E 030°15'0 0.0
2014-Dec-20 08:30N 59°55' E 030°15'0 0.0
2014-Dec-20 07:25N 59°55' E 030°15'0 0.0
2014-Dec-20 06:33N 59°55' E 030°15'0 0.0
2014-Dec-20 05:33N 59°55' E 030°15'0 0.0
2014-Dec-20 04:33N 59°55' E 030°15'0 0.0
2014-Dec-20 03:33N 59°55' E 030°15'0 0.0
2014-Dec-20 02:34N 59°55' E 030°15'0 0.0
2014-Dec-20 01:33N 59°55' E 030°15'0 0.0
2014-Dec-20 00:34N 59°55' E 030°15'0 0.0
2014-Dec-19 23:33N 59°55' E 030°15'0 0.0
2014-Dec-19 22:33N 59°55' E 030°15'0 0.0
2014-Dec-19 21:33N 59°55' E 030°15'0 0.0
2014-Dec-19 20:33N 59°55' E 030°15'0 0.0
2014-Dec-19 19:32N 59°55' E 030°15'0 0.0
2014-Dec-19 18:33N 59°55' E 030°15'0 0.0
2014-Dec-19 17:33N 59°55' E 030°15'0 0.0
2014-Dec-19 16:33N 59°55' E 030°15'0 0.0
2014-Dec-19 15:33N 59°55' E 030°15'3 3.0
2014-Dec-19 14:33N 59°53' E 030°11'9912.3
2014-Dec-19 06:27N 59°58' E 026°53'1213.8
2014-Dec-19 05:33N 59°58' E 026°28'3 0.1
2014-Dec-18 03:26N 60°01' E 026°29'11111.2
2014-Dec-17 17:31N 59°53' E 030°11'3 2.9
2014-Dec-17 16:30N 59°55' E 030°15'0 0.0
2014-Dec-17 14:19N 59°55' E 030°15'0 0.0
2014-Dec-17 13:26N 59°55' E 030°15'0 0.0
2014-Dec-17 12:33N 59°55' E 030°15'0 0.0
2014-Dec-17 11:31N 59°55' E 030°15'0 0.0
2014-Dec-17 10:33N 59°55' E 030°15'0 0.0
2014-Dec-17 08:33N 59°55' E 030°15'0 0.0
2014-Dec-17 07:33N 59°55' E 030°15'0 0.0
2014-Dec-17 06:33N 59°55' E 030°15'0 0.0
2014-Dec-17 05:33N 59°55' E 030°15'0 0.0
2014-Dec-17 04:33N 59°55' E 030°15'0 0.0
2014-Dec-17 03:32N 59°55' E 030°15'0 0.0
2014-Dec-17 02:33N 59°55' E 030°15'0 0.0
2014-Dec-17 01:24N 59°55' E 030°15'0 0.0
2014-Dec-17 00:31N 59°55' E 030°15'0 0.0
2014-Dec-16 23:15N 59°55' E 030°15'3 3.9
2014-Dec-16 22:33N 59°53' E 030°12'1 0.0
2014-Dec-16 03:14N 59°52' E 030°12'9710.0
2014-Dec-15 17:33N 59°58' E 026°59'1312.7
2014-Dec-15 16:33N 59°59' E 026°34'58 2.6
2014-Dec-14 18:34N 59°34' E 024°50'0 0.2
2014-Dec-14 17:28N 59°35' E 024°50'0 0.0
2014-Dec-14 16:31N 59°35' E 024°50'0 0.0
2014-Dec-14 15:31N 59°34' E 024°50'0 0.0
2014-Dec-14 14:31N 59°34' E 024°50'0 0.0
2014-Dec-14 13:31N 59°34' E 024°50'0 0.0
2014-Dec-14 12:25N 59°34' E 024°50'0 0.0
2014-Dec-14 11:31N 59°34' E 024°50'1 1.2
2014-Dec-14 10:32N 59°35' E 024°48'4 4.1
2014-Dec-14 09:33N 59°39' E 024°49'6211.7
2014-Dec-14 04:14N 60°01' E 026°45'10411.7
2014-Dec-13 19:22N 59°53' E 030°11'1 0.0
2014-Dec-12 20:21N 59°52' E 030°13'2 2.0
2014-Dec-12 19:33N 59°54' E 030°13'2 1.7
2014-Dec-12 18:32N 59°55' E 030°15'0 0.0
2014-Dec-12 17:32N 59°55' E 030°15'0 0.0
2014-Dec-12 16:32N 59°55' E 030°15'0 0.0
2014-Dec-12 15:32N 59°55' E 030°15'0 0.0
2014-Dec-12 14:32N 59°55' E 030°15'0 0.0
2014-Dec-12 13:23N 59°55' E 030°15'0 0.0
2014-Dec-12 12:20N 59°55' E 030°15'0 0.0
2014-Dec-12 11:29N 59°55' E 030°15'0 0.0
2014-Dec-12 10:11N 59°55' E 030°15'0 0.0
2014-Dec-12 09:23N 59°55' E 030°15'0 0.0
2014-Dec-12 08:26N 59°55' E 030°15'0 0.0
2014-Dec-12 06:29N 59°55' E 030°15'2 1.8
2014-Dec-12 05:33N 59°54' E 030°13'  

Dump ship's entire track history